Time;durP1;ratioP1;P1;durP2;ratioP2;P2;SDS_P1;SDS_P2;PMS_P1;PMS_P2;Temp;Humidity;BMP_temperature;BMP_pressure;BME280_temperature;BME280_humidity;BME280_pressure;Samples;Min_cycle;Max_cycle;Signal;HPM_P1;HPM_P2
2022/02/17 00:02:23;;;;;;;18.95;14.93;;;;;;;5.12;79.00;97804.64;1778435;80;20978;-66
2022/02/17 00:04:49;;;;;;;17.67;15.25;;;;;;;5.15;78.82;97795.56;1765885;80;21596;-63
2022/02/17 00:07:16;;;;;;;18.07;15.32;;;;;;;5.18;78.61;97792.09;1774584;80;20911;-62
2022/02/17 00:09:42;;;;;;;17.52;14.13;;;;;;;5.21;78.38;97784.33;1778665;80;20991;-65
2022/02/17 00:12:10;;;;;;;15.08;13.58;;;;;;;5.23;78.16;97781.00;1777974;80;21162;-63
2022/02/17 00:14:36;;;;;;;18.42;13.60;;;;;;;5.25;77.96;97777.19;1758791;80;21045;-65
2022/02/17 00:17:03;;;;;;;15.15;13.08;;;;;;;5.27;77.73;97760.69;1744811;80;20941;-65
2022/02/17 00:19:30;;;;;;;14.35;12.85;;;;;;;5.29;77.58;97748.14;1747161;80;20963;-66
2022/02/17 00:21:56;;;;;;;17.12;13.40;;;;;;;5.31;77.44;97750.61;1771797;80;20927;-65
2022/02/17 00:24:23;;;;;;;16.50;13.78;;;;;;;5.32;77.27;97741.72;1767787;80;21159;-64
2022/02/17 00:26:50;;;;;;;19.07;15.32;;;;;;;5.31;77.12;97736.94;1743816;82;21541;-65
2022/02/17 00:29:16;;;;;;;19.57;13.68;;;;;;;5.31;77.02;97736.11;1768064;80;20844;-67
2022/02/17 00:31:43;;;;;;;20.05;15.30;;;;;;;5.29;76.92;97734.16;1770540;80;20913;-65
2022/02/17 00:34:10;;;;;;;15.13;13.53;;;;;;;5.27;76.94;97730.86;1752683;80;21077;-67
2022/02/17 00:36:37;;;;;;;17.60;13.45;;;;;;;5.26;76.93;97727.43;1760319;80;21819;-66
2022/02/17 00:39:04;;;;;;;15.78;12.53;;;;;;;5.27;76.94;97729.05;1763416;80;20949;-65
2022/02/17 00:41:31;;;;;;;17.05;12.75;;;;;;;5.30;76.94;97726.55;1747274;80;20990;-62
2022/02/17 00:43:57;;;;;;;15.65;11.63;;;;;;;5.32;76.89;97715.35;1755316;80;20896;-65
2022/02/17 00:46:23;;;;;;;12.30;10.93;;;;;;;5.36;76.79;97710.85;1748665;80;20927;-65
2022/02/17 00:48:50;;;;;;;16.77;12.60;;;;;;;5.40;76.65;97708.65;1744586;82;21988;-64
2022/02/17 00:51:17;;;;;;;12.63;11.25;;;;;;;5.45;76.48;97704.97;1745891;80;20858;-65
2022/02/17 00:53:43;;;;;;;11.08;9.95;;;;;;;5.50;76.27;97700.80;1771162;80;21528;-65
2022/02/17 00:56:10;;;;;;;13.55;10.50;;;;;;;5.54;76.08;97692.03;1747118;80;21047;-67
2022/02/17 00:58:37;;;;;;;14.30;10.43;;;;;;;5.60;75.90;97678.92;1767025;80;21069;-66
2022/02/17 01:01:05;;;;;;;11.08;9.93;;;;;;;5.64;75.68;97672.79;1757187;80;21150;-64
2022/02/17 01:03:32;;;;;;;10.55;9.00;;;;;;;5.69;75.46;97664.31;1768632;80;20943;-66
2022/02/17 01:05:58;;;;;;;9.90;8.85;;;;;;;5.73;75.24;97661.65;1751818;80;21414;-63
2022/02/17 01:08:25;;;;;;;10.28;9.05;;;;;;;5.78;75.04;97656.14;1746318;80;20961;-66
2022/02/17 01:10:53;;;;;;;11.28;10.03;;;;;;;5.82;74.79;97646.84;1772108;80;20935;-67
2022/02/17 01:13:23;;;;;;;11.48;10.30;;;;;;;5.88;74.56;97632.13;1766362;80;20999;-64
2022/02/17 01:15:51;;;;;;;11.95;10.08;;;;;;;5.91;74.29;97631.27;1744907;81;20879;-65
2022/02/17 01:18:17;;;;;;;12.03;9.93;;;;;;;5.91;74.05;97623.84;1764421;80;20879;-65
2022/02/17 01:20:46;;;;;;;13.13;10.98;;;;;;;5.93;73.87;97619.19;1764101;81;21071;-63
2022/02/17 01:23:13;;;;;;;13.58;11.78;;;;;;;5.92;73.66;97603.84;1763453;81;20943;-63
2022/02/17 01:25:40;;;;;;;12.13;10.88;;;;;;;5.91;73.47;97598.27;1754968;81;21160;-67
2022/02/17 01:28:07;;;;;;;15.30;12.10;;;;;;;5.91;73.36;97585.08;1761908;81;21486;-64
2022/02/17 01:30:36;;;;;;;12.18;10.85;;;;;;;5.90;73.27;97581.28;1763150;80;21430;-65
2022/02/17 01:33:03;;;;;;;12.45;10.43;;;;;;;5.86;73.15;97579.54;1757348;81;21000;-64
2022/02/17 01:35:30;;;;;;;13.68;11.35;;;;;;;5.83;73.11;97570.64;1744651;81;21426;-65
2022/02/17 01:38:04;;;;;;;13.53;11.50;;;;;;;5.80;73.08;97581.56;1749185;81;21156;-66
2022/02/17 01:40:31;;;;;;;12.90;10.95;;;;;;;5.79;73.10;97579.91;1761682;81;21046;-66
2022/02/17 01:42:58;;;;;;;17.32;11.63;;;;;;;5.79;73.11;97578.59;1761382;80;21065;-64
2022/02/17 01:45:26;;;;;;;15.25;12.90;;;;;;;5.79;73.06;97574.64;1742076;81;20921;-67
2022/02/17 01:47:52;;;;;;;17.20;13.50;;;;;;;5.78;73.01;97563.79;1763190;80;21419;-64
2022/02/17 01:50:22;;;;;;;15.10;13.30;;;;;;;5.75;73.03;97567.29;1739899;81;22029;-67
2022/02/17 01:52:48;;;;;;;15.18;12.73;;;;;;;5.70;73.14;97567.03;1739198;81;21435;-64
2022/02/17 01:55:15;;;;;;;14.18;12.68;;;;;;;5.65;73.23;97563.64;1744786;81;20935;-66
2022/02/17 01:57:41;;;;;;;17.92;13.22;;;;;;;5.62;73.41;97549.49;1762314;81;21019;-65
2022/02/17 02:00:11;;;;;;;16.10;13.48;;;;;;;5.58;73.51;97538.98;1746056;80;21423;-66
2022/02/17 02:02:46;;;;;;;17.17;12.90;;;;;;;5.57;73.67;97534.73;1746605;81;22348;-64
2022/02/17 02:05:12;;;;;;;15.45;13.60;;;;;;;5.56;73.75;97518.08;1744120;81;20903;-65
2022/02/17 02:07:41;;;;;;;16.62;13.88;;;;;;;5.54;73.84;97508.22;1763321;81;21488;-66
2022/02/17 02:10:09;;;;;;;14.78;13.20;;;;;;;5.53;73.93;97503.11;1764819;80;20904;-63
2022/02/17 02:12:37;;;;;;;15.58;13.15;;;;;;;5.50;74.05;97497.71;1764210;80;20956;-65
2022/02/17 02:15:07;;;;;;;19.42;14.60;;;;;;;5.47;74.11;97487.56;1765669;80;21114;-64
2022/02/17 02:17:38;;;;;;;15.68;13.98;;;;;;;5.45;74.23;97485.58;1756798;80;21445;-64
2022/02/17 02:20:07;;;;;;;18.12;14.90;;;;;;;5.42;74.33;97475.92;1744146;82;20988;-66
2022/02/17 02:22:34;;;;;;;17.02;14.87;;;;;;;5.39;74.47;97473.16;1759250;80;21043;-63
2022/02/17 02:25:01;;;;;;;18.92;15.28;;;;;;;5.37;74.56;97465.91;1764081;80;21074;-67
2022/02/17 02:27:29;;;;;;;20.80;14.95;;;;;;;5.37;74.61;97463.28;1768694;80;21199;-64
2022/02/17 02:29:56;;;;;;;15.00;12.88;;;;;;;5.36;74.63;97456.39;1771724;80;21429;-66
2022/02/17 02:32:24;;;;;;;15.53;13.38;;;;;;;5.37;74.56;97447.45;1767058;80;20983;-66
2022/02/17 02:34:51;;;;;;;15.95;12.78;;;;;;;5.37;74.48;97442.19;1747396;80;21106;-67
2022/02/17 02:37:18;;;;;;;14.73;12.20;;;;;;;5.39;74.38;97444.16;1755199;80;20911;-65
2022/02/17 02:39:44;;;;;;;15.63;12.78;;;;;;;5.41;74.26;97432.09;1766065;80;21158;-67
2022/02/17 02:42:11;;;;;;;16.42;12.80;;;;;;;5.43;74.18;97428.27;1748618;81;21506;-67
2022/02/17 02:44:37;;;;;;;13.60;11.90;;;;;;;5.44;74.03;97420.68;1756718;80;20951;-66
2022/02/17 02:47:07;;;;;;;12.75;11.45;;;;;;;5.45;73.84;97419.66;1764724;80;20947;-63
2022/02/17 02:49:38;;;;;;;13.98;11.38;;;;;;;5.45;73.67;97413.56;1770349;80;21035;-63
2022/02/17 02:52:06;;;;;;;12.25;10.90;;;;;;;5.43;73.52;97407.66;1772014;80;21188;-68
2022/02/17 02:54:38;;;;;;;12.18;10.48;;;;;;;5.41;73.32;97396.00;1765602;80;20866;-66
2022/02/17 02:57:04;;;;;;;13.00;10.90;;;;;;;5.42;73.21;97390.23;1750374;80;21542;-65
2022/02/17 02:59:31;;;;;;;12.58;10.70;;;;;;;5.42;73.05;97384.95;1744542;80;20982;-63
2022/02/17 03:01:59;;;;;;;14.25;10.82;;;;;;;5.42;72.93;97386.27;1770518;80;20896;-65
2022/02/17 03:04:25;;;;;;;12.80;10.85;;;;;;;5.41;72.73;97374.08;1768491;80;21133;-66
2022/02/17 03:06:52;;;;;;;16.40;11.88;;;;;;;5.40;72.64;97373.25;1751309;80;20900;-66
2022/02/17 03:09:20;;;;;;;12.75;11.12;;;;;;;5.38;72.60;97369.17;1754886;80;21529;-68
2022/02/17 03:11:47;;;;;;;16.12;11.65;;;;;;;5.37;72.58;97363.61;1771832;80;20990;-62
2022/02/17 03:14:15;;;;;;;13.03;11.38;;;;;;;5.36;72.57;97356.19;1777417;80;20914;-66
2022/02/17 03:16:42;;;;;;;15.58;11.43;;;;;;;5.34;72.60;97356.06;1771037;80;21956;-66
2022/02/17 03:19:13;;;;;;;13.60;11.48;;;;;;;5.34;72.55;97342.39;1779968;80;20919;-66
2022/02/17 03:21:40;;;;;;;15.98;12.28;;;;;;;5.33;72.56;97334.66;1775360;80;21492;-64
2022/02/17 03:24:07;;;;;;;14.55;12.73;;;;;;;5.32;72.57;97323.28;1758963;80;20976;-65
2022/02/17 03:26:35;;;;;;;16.52;13.15;;;;;;;5.31;72.58;97332.22;1767076;80;20972;-65
2022/02/17 03:29:03;;;;;;;19.00;14.13;;;;;;;5.29;72.61;97322.34;1779975;80;21149;-66
2022/02/17 03:31:32;;;;;;;17.12;13.18;;;;;;;5.28;72.67;97314.62;1778272;80;20982;-66
2022/02/17 03:34:00;;;;;;;15.23;13.50;;;;;;;5.27;72.70;97312.98;1778880;80;20875;-65
2022/02/17 03:36:26;;;;;;;17.10;13.38;;;;;;;5.25;72.78;97297.38;1763298;80;20992;-67
2022/02/17 03:38:57;;;;;;;14.13;12.55;;;;;;;5.23;72.81;97293.30;1752153;82;20953;-65
2022/02/17 03:41:24;;;;;;;13.13;11.35;;;;;;;5.22;72.85;97289.02;1744081;80;21171;-64
2022/02/17 03:43:53;;;;;;;13.20;11.63;;;;;;;5.20;72.90;97293.66;1734026;81;21383;-65
2022/02/17 03:46:21;;;;;;;13.35;10.82;;;;;;;5.18;72.96;97283.82;1763334;80;20935;-66
2022/02/17 03:48:48;;;;;;;14.63;11.85;;;;;;;5.17;73.01;97279.55;1709421;83;21450;-64
2022/02/17 03:51:16;;;;;;;17.50;11.80;;;;;;;5.15;73.05;97268.38;1779799;80;21433;-67
2022/02/17 03:53:43;;;;;;;13.15;11.45;;;;;;;5.13;73.14;97260.67;1708894;83;21151;-63
2022/02/17 03:56:10;;;;;;;14.50;12.18;;;;;;;5.12;73.16;97259.03;1767802;80;21432;-61
2022/02/17 03:59:03;;;;;;;13.40;11.95;;;;;;;5.11;73.21;97249.48;1756287;80;21033;-65
2022/02/17 04:01:35;;;;;;;13.93;11.78;;;;;;;5.07;73.26;97245.61;1773697;80;21002;-64
2022/02/17 04:04:07;;;;;;;15.72;12.07;;;;;;;5.02;73.44;97234.00;1767294;80;20900;-63
2022/02/17 04:06:35;;;;;;;12.58;11.25;;;;;;;4.96;73.67;97212.67;1767067;80;21414;-65
2022/02/17 04:09:04;;;;;;;13.50;12.05;;;;;;;4.93;73.94;97198.55;1769606;80;21523;-64
2022/02/17 04:11:31;;;;;;;15.95;12.18;;;;;;;4.92;74.11;97193.49;1755286;80;21595;-63
2022/02/17 04:13:58;;;;;;;15.53;13.20;;;;;;;4.90;74.32;97207.36;1751449;82;21009;-64
2022/02/17 04:16:35;;;;;;;16.85;12.98;;;;;;;4.87;74.51;97206.42;1747328;82;20978;-63
2022/02/17 04:19:09;;;;;;;14.50;11.93;;;;;;;4.83;74.72;97188.84;1736797;82;21158;-64
2022/02/17 04:21:56;;;;;;;15.08;12.73;;;;;;;4.80;74.83;97190.53;1749983;82;20932;-63
2022/02/17 04:24:41;;;;;;;13.03;10.65;;;;;;;4.77;75.00;97190.91;1746949;82;20988;-63
2022/02/17 04:27:08;;;;;;;12.98;10.85;;;;;;;4.75;75.18;97173.17;1744426;82;20958;-64
2022/02/17 04:29:36;;;;;;;14.15;11.90;;;;;;;4.73;75.29;97167.28;1748882;80;20945;-64
2022/02/17 04:32:05;;;;;;;15.23;12.85;;;;;;;4.74;75.39;97166.78;1740082;82;21806;-64
2022/02/17 04:34:32;;;;;;;17.32;12.70;;;;;;;4.72;75.44;97160.38;1742928;82;20977;-66
2022/02/17 04:37:00;;;;;;;17.82;12.78;;;;;;;4.72;75.45;97170.91;1724349;82;20925;-65
2022/02/17 04:39:26;;;;;;;15.08;12.70;;;;;;;4.72;75.58;97176.17;1746010;82;20906;-65
2022/02/17 04:44:40;;;;;;;13.35;10.80;;;;;;;4.74;75.71;97158.88;1729280;82;21079;-63
2022/02/17 04:47:06;;;;;;;12.43;10.72;;;;;;;4.76;75.63;97141.88;1733989;82;20866;-63
2022/02/17 04:49:32;;;;;;;12.68;11.08;;;;;;;4.80;75.57;97138.34;1744944;82;20998;-65
2022/02/17 04:51:59;;;;;;;15.50;11.18;;;;;;;4.83;75.49;97122.17;1744537;81;20937;-63
2022/02/17 04:54:27;;;;;;;14.55;11.10;;;;;;;4.83;75.40;97126.12;1744924;82;20933;-64
2022/02/17 04:56:54;;;;;;;13.80;10.98;;;;;;;4.84;75.31;97123.31;1738103;82;21890;-63
2022/02/17 04:59:21;;;;;;;12.05;10.53;;;;;;;4.83;75.29;97112.45;1738159;80;21475;-64
2022/02/17 05:01:48;;;;;;;11.80;10.10;;;;;;;4.85;75.25;97105.66;1747788;82;20987;-64
2022/02/17 05:04:16;;;;;;;13.43;10.45;;;;;;;4.87;75.20;97116.34;1742287;80;20961;-64
2022/02/17 05:06:45;;;;;;;13.40;10.45;;;;;;;4.90;75.07;97107.25;1728139;81;20943;-63
2022/02/17 05:09:11;;;;;;;12.70;10.75;;;;;;;4.92;74.94;97111.31;1726891;80;21069;-64
2022/02/17 05:11:40;;;;;;;12.13;10.58;;;;;;;4.95;74.75;97095.09;1746906;82;20995;-64
2022/02/17 05:14:07;;;;;;;12.30;10.05;;;;;;;4.97;74.66;97094.42;1758983;80;20891;-63
2022/02/17 05:16:33;;;;;;;11.50;9.83;;;;;;;4.99;74.53;97076.59;1769105;80;20947;-65
2022/02/17 05:19:00;;;;;;;11.83;9.93;;;;;;;5.02;74.43;97073.25;1771726;80;20919;-63
2022/02/17 05:21:31;;;;;;;12.85;10.03;;;;;;;5.03;74.32;97062.54;1765171;80;21159;-64
2022/02/17 05:24:15;;;;;;;11.48;9.65;;;;;;;5.05;74.20;97059.70;1767796;80;20845;-63
2022/02/17 05:26:59;;;;;;;11.03;9.48;;;;;;;5.06;74.11;97054.22;1741592;82;20862;-64
2022/02/17 05:29:30;;;;;;;10.15;8.93;;;;;;;5.06;74.03;97034.45;1746772;80;20976;-64
2022/02/17 05:32:16;;;;;;;11.73;9.65;;;;;;;5.06;73.99;97028.40;1671765;85;21482;-65
2022/02/17 05:35:01;;;;;;;10.82;8.83;;;;;;;5.08;73.93;97013.20;1665382;83;21187;-64
2022/02/17 05:37:47;;;;;;;9.68;8.68;;;;;;;5.12;73.91;97011.29;1727937;80;20931;-65
2022/02/17 05:40:27;;;;;;;11.22;9.10;;;;;;;5.18;73.76;96995.20;1721160;80;21073;-65
2022/02/17 05:42:53;;;;;;;10.13;8.80;;;;;;;5.22;73.56;97005.64;1765323;80;20949;-64
2022/02/17 05:45:19;;;;;;;10.23;8.75;;;;;;;5.26;73.35;96989.27;1766425;80;21432;-65
2022/02/17 05:47:46;;;;;;;9.73;8.70;;;;;;;5.30;73.15;97001.03;1764234;80;21110;-65
2022/02/17 05:50:12;;;;;;;12.43;8.53;;;;;;;5.33;72.99;97001.95;1752588;80;20905;-62
2022/02/17 05:52:39;;;;;;;11.10;8.98;;;;;;;5.38;72.88;96989.49;1755170;80;20895;-65
2022/02/17 05:55:07;;;;;;;9.00;8.08;;;;;;;5.42;72.65;96978.34;1751663;80;21027;-64
2022/02/17 05:57:37;;;;;;;10.98;8.60;;;;;;;5.48;72.52;96970.16;1756094;80;20963;-65
2022/02/17 06:00:06;;;;;;;11.33;9.13;;;;;;;5.55;72.34;96968.37;1756431;80;21460;-63
2022/02/17 06:02:37;;;;;;;12.98;9.15;;;;;;;5.69;72.05;96966.05;1772840;80;21527;-65
2022/02/17 06:05:05;;;;;;;12.20;8.88;;;;;;;5.88;71.55;96961.85;1763857;80;21446;-64
2022/02/17 06:07:31;;;;;;;9.80;8.65;;;;;;;6.06;70.78;96955.47;1754022;80;21041;-67
2022/02/17 06:09:58;;;;;;;13.40;9.15;;;;;;;6.17;70.29;96953.55;1760913;80;21088;-70
2022/02/17 06:12:25;;;;;;;10.18;8.35;;;;;;;6.23;69.88;96953.25;1763898;80;21161;-69
2022/02/17 06:14:51;;;;;;;10.68;8.75;;;;;;;6.30;69.57;96942.17;1767920;80;20974;-70
2022/02/17 06:17:20;;;;;;;10.08;7.92;;;;;;;6.39;69.22;96930.39;1746838;80;20967;-64
2022/02/17 06:19:47;;;;;;;11.83;8.73;;;;;;;6.46;68.68;96934.65;1773642;80;21505;-63
2022/02/17 06:22:14;;;;;;;8.95;7.78;;;;;;;6.46;68.26;96930.69;1773025;80;20990;-65
2022/02/17 06:24:41;;;;;;;9.98;8.63;;;;;;;6.43;68.24;96919.71;1773420;80;21537;-63
2022/02/17 06:27:07;;;;;;;11.48;8.85;;;;;;;6.40;68.30;96924.08;1759982;80;20877;-63
2022/02/17 06:29:33;;;;;;;12.90;9.48;;;;;;;6.35;68.31;96918.09;1744084;82;21502;-63
2022/02/17 06:32:00;;;;;;;9.73;8.63;;;;;;;6.32;68.43;96925.61;1744876;80;20904;-63
2022/02/17 06:34:27;;;;;;;8.80;7.87;;;;;;;6.29;68.47;96910.17;1750290;80;20931;-63
2022/02/17 06:36:53;;;;;;;16.15;9.68;;;;;;;6.26;68.50;96903.47;1773260;80;21539;-63
2022/02/17 06:39:19;;;;;;;10.78;8.83;;;;;;;6.25;68.47;96902.38;1761587;80;20954;-63
2022/02/17 06:41:46;;;;;;;9.43;8.43;;;;;;;6.21;68.48;96888.25;1762976;80;20995;-63
2022/02/17 06:44:12;;;;;;;13.62;9.80;;;;;;;6.21;68.54;96884.30;1772729;80;20994;-63
2022/02/17 06:46:39;;;;;;;9.63;7.78;;;;;;;6.19;68.71;96902.67;1773607;80;20940;-63
2022/02/17 06:49:07;;;;;;;10.38;8.30;;;;;;;6.18;68.92;96888.66;1755151;80;20844;-64
2022/02/17 06:51:34;;;;;;;8.28;7.35;;;;;;;6.17;69.42;96875.17;1758566;80;21576;-65
2022/02/17 06:54:00;;;;;;;7.87;7.05;;;;;;;6.16;69.55;96851.10;1760938;80;20974;-62
2022/02/17 06:56:26;;;;;;;9.93;8.28;;;;;;;6.16;69.69;96832.63;1768826;80;20971;-63
2022/02/17 06:58:53;;;;;;;9.18;7.85;;;;;;;6.17;69.84;96839.53;1751808;80;20959;-64
2022/02/17 07:01:23;;;;;;;9.93;8.15;;;;;;;6.19;69.91;96839.32;1764794;80;21352;-63
2022/02/17 07:03:50;;;;;;;9.65;7.60;;;;;;;6.22;69.93;96833.62;1764137;80;20900;-64
2022/02/17 07:06:17;;;;;;;9.65;8.13;;;;;;;6.23;69.90;96839.73;1761084;80;21025;-64
2022/02/17 07:08:44;;;;;;;10.82;8.83;;;;;;;6.24;69.78;96855.34;1764857;80;21529;-64
2022/02/17 07:11:12;;;;;;;9.33;7.75;;;;;;;6.27;69.71;96836.97;1759740;80;20938;-64
2022/02/17 07:13:39;;;;;;;8.00;7.20;;;;;;;6.29;69.61;96832.28;1769207;80;21159;-64
2022/02/17 07:16:06;;;;;;;8.60;7.50;;;;;;;6.34;69.45;96839.89;1768791;80;21444;-63
2022/02/17 07:18:32;;;;;;;13.53;8.55;;;;;;;6.41;69.18;96841.20;1781866;80;20927;-63
2022/02/17 07:20:59;;;;;;;8.65;7.83;;;;;;;6.44;69.08;96831.02;1780747;80;20994;-62
2022/02/17 07:23:26;;;;;;;9.95;8.55;;;;;;;6.48;68.99;96830.92;1781761;80;20851;-63
2022/02/17 07:25:53;;;;;;;9.68;7.53;;;;;;;6.52;68.83;96829.97;1781830;80;21145;-63
2022/02/17 07:28:22;;;;;;;9.55;6.80;;;;;;;6.54;68.82;96831.42;1781060;80;21500;-63
2022/02/17 07:30:49;;;;;;;8.65;7.40;;;;;;;6.55;68.80;96829.56;1766013;80;20930;-62
2022/02/17 07:33:16;;;;;;;9.50;6.95;;;;;;;6.56;68.79;96844.41;1753782;80;21575;-62
2022/02/17 07:35:42;;;;;;;6.62;5.92;;;;;;;6.59;68.77;96843.48;1761557;80;20974;-63
2022/02/17 07:38:08;;;;;;;9.30;7.75;;;;;;;6.61;69.13;96844.09;1772763;80;21729;-64
2022/02/17 07:40:35;;;;;;;10.82;8.33;;;;;;;6.64;69.83;96833.61;1781645;80;21042;-63
2022/02/17 07:43:03;;;;;;;8.63;7.53;;;;;;;6.64;70.93;96823.05;1781030;80;20939;-64
2022/02/17 07:45:32;;;;;;;8.53;6.92;;;;;;;6.64;72.00;96812.48;1781625;80;20997;-64
2022/02/17 07:47:59;;;;;;;9.15;6.47;;;;;;;6.62;72.89;96808.70;1780982;80;20939;-64
2022/02/17 07:50:27;;;;;;;9.43;6.85;;;;;;;6.62;73.69;96790.22;1781612;80;21169;-64
2022/02/17 07:52:54;;;;;;;7.05;6.17;;;;;;;6.63;74.36;96793.67;1764421;80;21029;-65
2022/02/17 07:55:21;;;;;;;6.25;4.92;;;;;;;6.64;75.01;96771.53;1777003;80;21097;-63
2022/02/17 07:57:47;;;;;;;6.40;5.10;;;;;;;6.69;75.41;96773.03;1769664;80;21031;-63
2022/02/17 08:00:16;;;;;;;5.90;5.25;;;;;;;6.72;75.94;96758.89;1779554;80;21566;-62
2022/02/17 08:02:45;;;;;;;5.97;5.37;;;;;;;6.76;76.13;96756.11;1780836;80;21179;-64
2022/02/17 08:05:12;;;;;;;7.72;6.05;;;;;;;6.80;76.42;96748.59;1761739;80;21014;-64
2022/02/17 08:07:41;;;;;;;6.22;5.08;;;;;;;6.80;76.73;96742.77;1781923;80;21453;-62
2022/02/17 08:10:08;;;;;;;6.83;5.58;;;;;;;6.83;77.28;96742.84;1781191;80;20904;-63
2022/02/17 08:12:43;;;;;;;9.10;7.15;;;;;;;6.84;77.57;96747.13;1781864;80;20927;-64
2022/02/17 08:15:11;;;;;;;7.95;6.72;;;;;;;6.84;77.74;96741.33;1781216;80;21152;-65
2022/02/17 08:17:40;;;;;;;10.78;8.33;;;;;;;6.81;78.14;96734.33;1781721;80;20832;-63
2022/02/17 08:20:11;;;;;;;11.70;8.50;;;;;;;6.83;78.13;96711.14;1781170;80;20983;-62
2022/02/17 08:22:37;;;;;;;12.23;8.75;;;;;;;6.84;78.24;96703.52;1781931;80;20907;-63
2022/02/17 08:25:05;;;;;;;10.45;8.55;;;;;;;6.86;78.55;96698.83;1781087;80;20950;-63
2022/02/17 08:27:34;;;;;;;11.00;8.03;;;;;;;6.88;78.60;96684.91;1781697;80;20966;-64
2022/02/17 08:30:01;;;;;;;10.13;8.00;;;;;;;6.90;78.73;96669.64;1781111;80;20990;-62
2022/02/17 08:32:35;;;;;;;11.22;7.60;;;;;;;6.89;78.93;96669.33;1781727;80;20887;-65
2022/02/17 08:35:01;;;;;;;8.75;7.58;;;;;;;6.88;79.06;96673.02;1781273;80;20954;-64
2022/02/17 08:37:28;;;;;;;8.73;6.92;;;;;;;6.86;79.23;96660.51;1781696;80;20922;-63
2022/02/17 08:39:54;;;;;;;8.78;6.87;;;;;;;6.87;79.46;96651.57;1781948;80;21788;-63
2022/02/17 08:42:21;;;;;;;7.65;6.35;;;;;;;6.87;79.41;96642.83;1781141;80;20957;-64
2022/02/17 08:44:48;;;;;;;7.55;5.90;;;;;;;6.89;79.43;96625.73;1781786;80;20982;-65
2022/02/17 08:47:17;;;;;;;5.70;5.10;;;;;;;6.93;79.34;96639.33;1781113;80;20971;-63
2022/02/17 08:49:42;;;;;;;6.45;5.55;;;;;;;6.94;79.26;96631.17;1781773;80;21548;-63
2022/02/17 08:52:09;;;;;;;7.37;6.10;;;;;;;6.96;79.29;96626.48;1781221;80;21123;-63
2022/02/17 08:54:36;;;;;;;7.65;6.20;;;;;;;6.99;79.24;96631.33;1781699;80;20914;-64
2022/02/17 08:57:04;;;;;;;9.00;7.53;;;;;;;7.01;79.06;96616.09;1781043;80;20955;-64
2022/02/17 08:59:30;;;;;;;9.65;7.65;;;;;;;7.04;78.86;96599.77;1781719;80;20978;-65
2022/02/17 09:01:57;;;;;;;6.50;5.90;;;;;;;7.06;78.85;96606.19;1781544;80;20852;-65
2022/02/17 09:04:23;;;;;;;6.58;5.50;;;;;;;7.07;78.90;96599.34;1752037;81;21160;-64
2022/02/17 09:06:50;;;;;;;6.95;5.80;;;;;;;7.08;78.98;96599.66;1752069;82;21047;-63
2022/02/17 09:09:18;;;;;;;11.00;5.75;;;;;;;7.11;78.87;96598.41;1757086;80;21540;-63
2022/02/17 09:11:45;;;;;;;7.55;6.10;;;;;;;7.15;78.78;96585.03;1781831;80;20927;-64
2022/02/17 09:14:12;;;;;;;8.78;6.87;;;;;;;7.18;78.67;96572.20;1781279;80;21070;-64
2022/02/17 09:16:38;;;;;;;8.23;6.33;;;;;;;7.23;78.41;96576.31;1774089;80;21155;-64
2022/02/17 09:19:05;;;;;;;9.85;7.25;;;;;;;7.26;78.09;96589.61;1755630;80;20952;-68
2022/02/17 09:21:32;;;;;;;9.58;7.05;;;;;;;7.30;78.04;96587.63;1753770;80;20952;-66
2022/02/17 09:24:00;;;;;;;14.10;7.72;;;;;;;7.41;79.81;96573.68;1707232;84;21010;-64
2022/02/17 09:26:29;;;;;;;10.13;8.40;;;;;;;7.89;82.46;96572.92;1765086;80;20937;-65
2022/02/17 09:28:56;;;;;;;9.58;6.47;;;;;;;8.30;78.67;96566.88;1764984;80;21116;-67
2022/02/17 09:31:23;;;;;;;8.48;5.87;;;;;;;8.41;76.76;96571.41;1763183;80;20942;-66
2022/02/17 09:33:50;;;;;;;7.83;6.95;;;;;;;8.44;75.49;96560.37;1753242;80;21532;-65
2022/02/17 09:36:17;;;;;;;8.53;7.60;;;;;;;8.45;74.44;96547.39;1757502;80;21068;-65
2022/02/17 09:38:44;;;;;;;12.93;7.87;;;;;;;8.43;74.18;96538.36;1758408;80;20956;-66
2022/02/17 09:41:11;;;;;;;8.83;7.37;;;;;;;8.45;73.92;96536.80;1748441;80;21814;-66
2022/02/17 09:43:39;;;;;;;7.65;6.70;;;;;;;8.46;73.83;96528.64;1752679;80;21015;-64
2022/02/17 09:46:05;;;;;;;9.98;6.78;;;;;;;8.50;73.51;96522.35;1756880;80;21533;-65
2022/02/17 09:48:32;;;;;;;5.35;3.85;;;;;;;8.53;73.54;96522.71;1756024;80;21118;-66
2022/02/17 09:50:59;;;;;;;5.08;4.08;;;;;;;8.57;73.18;96496.58;1756123;80;21058;-67
2022/02/17 09:53:25;;;;;;;3.12;2.83;;;;;;;8.70;72.89;96501.66;1758796;80;21327;-64
2022/02/17 09:55:51;;;;;;;2.85;2.27;;;;;;;8.91;74.14;96494.97;1773455;80;21564;-66
2022/02/17 09:58:18;;;;;;;2.55;2.00;;;;;;;9.13;72.46;96491.48;1773068;80;21655;-64
2022/02/17 10:00:45;;;;;;;2.70;2.40;;;;;;;9.25;71.44;96469.70;1773513;80;20899;-64
2022/02/17 10:03:29;;;;;;;2.65;2.30;;;;;;;9.35;70.82;96479.74;1772814;80;21515;-66
2022/02/17 10:06:12;;;;;;;3.40;2.33;;;;;;;9.42;70.27;96469.80;1764701;80;21157;-64
2022/02/17 10:08:39;;;;;;;3.98;2.37;;;;;;;9.48;69.84;96456.92;1758368;80;20943;-63
2022/02/17 10:11:09;;;;;;;7.28;3.27;;;;;;;9.55;69.17;96452.27;1764946;80;20986;-70
2022/02/17 10:13:36;;;;;;;3.72;2.80;;;;;;;9.75;71.62;96422.12;1765527;80;20931;-68
2022/02/17 10:16:03;;;;;;;3.15;2.35;;;;;;;10.17;71.79;96412.50;1773681;80;21050;-66
2022/02/17 10:18:30;;;;;;;2.35;2.15;;;;;;;10.60;70.36;96401.21;1781940;80;21865;-66
2022/02/17 10:21:03;;;;;;;2.33;2.12;;;;;;;10.94;67.70;96404.08;1781509;80;20931;-67
2022/02/17 10:23:46;;;;;;;2.50;1.82;;;;;;;11.18;66.64;96392.94;1753446;80;20938;-65
2022/02/17 10:26:20;;;;;;;4.10;2.72;;;;;;;11.42;65.01;96379.39;1752461;80;20984;-64
2022/02/17 10:28:57;;;;;;;4.72;2.83;;;;;;;11.45;63.51;96378.34;1761447;80;20840;-64
2022/02/17 10:31:28;;;;;;;2.72;2.05;;;;;;;11.36;62.67;96372.39;1752142;82;21499;-64
2022/02/17 10:33:55;;;;;;;1.72;1.45;;;;;;;11.23;62.55;96366.94;1774756;80;20986;-65
2022/02/17 10:36:47;;;;;;;2.55;1.35;;;;;;;11.17;62.48;96375.91;1774168;80;20958;-64
2022/02/17 10:39:19;;;;;;;2.35;2.10;;;;;;;11.13;62.24;96361.50;1779903;80;20959;-64
2022/02/17 10:42:00;;;;;;;2.22;1.82;;;;;;;11.12;62.30;96347.91;1773282;80;20887;-68
2022/02/17 10:44:39;;;;;;;2.95;2.08;;;;;;;11.29;64.18;96334.54;1761163;80;21146;-69
2022/02/17 10:47:16;;;;;;;1.67;1.52;;;;;;;11.72;64.28;96323.28;1759187;80;20994;-68
2022/02/17 10:49:51;;;;;;;1.82;1.72;;;;;;;12.12;63.24;96328.11;1758959;80;21058;-65
2022/02/17 10:52:30;;;;;;;1.40;1.15;;;;;;;12.48;61.95;96330.50;1772024;80;20932;-63
2022/02/17 10:55:17;;;;;;;0.70;0.70;;;;;;;12.58;59.18;96317.22;1781458;80;20994;-67
2022/02/17 10:57:44;;;;;;;1.32;0.78;;;;;;;12.42;57.93;96335.52;1773791;80;21791;-63
2022/02/17 11:00:20;;;;;;;1.17;0.85;;;;;;;12.37;58.37;96323.50;1778297;80;20918;-65
2022/02/17 11:02:48;;;;;;;0.55;0.55;;;;;;;12.42;57.79;96316.86;1777339;80;20956;-65
2022/02/17 11:05:15;;;;;;;0.80;0.80;;;;;;;12.36;56.18;96309.36;1781154;80;20891;-65
2022/02/17 11:07:42;;;;;;;0.80;0.47;;;;;;;12.15;57.00;96336.93;1781601;80;21102;-67
2022/02/17 11:10:11;;;;;;;1.00;0.60;;;;;;;11.84;59.14;96344.41;1781124;80;20911;-61
2022/02/17 11:12:39;;;;;;;1.77;0.80;;;;;;;11.53;61.09;96365.92;1781451;80;20891;-69
2022/02/17 11:15:06;;;;;;;2.40;1.30;;;;;;;11.22;63.02;96357.86;1768260;80;20986;-65
2022/02/17 11:17:37;;;;;;;1.70;1.42;;;;;;;10.90;64.76;96385.14;1773687;80;20986;-64
2022/02/17 11:20:16;;;;;;;2.05;1.60;;;;;;;10.69;67.19;96403.20;1773059;80;20974;-68
2022/02/17 11:22:41;;;;;;;3.27;1.05;;;;;;;10.43;69.17;96410.00;1773375;80;21344;-64
2022/02/17 11:25:10;;;;;;;2.02;1.50;;;;;;;10.37;71.38;96390.25;1749448;80;20974;-65
2022/02/17 11:28:06;;;;;;;1.75;1.30;;;;;;;10.55;72.49;96382.02;1754987;80;20965;-64
2022/02/17 11:30:33;;;;;;;1.55;1.25;;;;;;;10.77;72.39;96384.69;1763556;80;20991;-65
2022/02/17 11:33:22;;;;;;;1.67;0.90;;;;;;;10.91;72.06;96376.64;1773413;80;20903;-64
2022/02/17 11:35:58;;;;;;;2.30;1.40;;;;;;;11.01;71.79;96372.78;1773493;80;21880;-64
2022/02/17 11:38:37;;;;;;;1.40;0.95;;;;;;;11.09;71.33;96369.69;1773668;80;27986;-66
2022/02/17 11:41:20;;;;;;;1.32;0.70;;;;;;;11.12;71.07;96355.38;1772228;80;21002;-63
2022/02/17 11:43:51;;;;;;;1.37;0.60;;;;;;;11.20;70.73;96373.27;1748901;80;20877;-63